createdAt,value
2022-11-25T00:00:03.393Z,50.834793
2022-11-25T00:01:03.436Z,50.834797
2022-11-25T00:02:03.448Z,50.834808
2022-11-25T00:03:03.470Z,50.834816
2022-11-25T00:04:03.367Z,50.834808
2022-11-25T00:05:03.432Z,50.834820
2022-11-25T00:06:03.348Z,50.834789
2022-11-25T00:07:03.334Z,50.834797
2022-11-25T00:08:03.369Z,50.834778
2022-11-25T00:09:03.379Z,50.834789
2022-11-25T00:10:03.325Z,50.834785
2022-11-25T00:11:03.297Z,50.834808
2022-11-25T00:12:03.329Z,50.834808
2022-11-25T00:13:03.304Z,50.834808
2022-11-25T00:14:03.450Z,50.834827
2022-11-25T00:15:03.276Z,50.834812
2022-11-25T00:16:04.125Z,50.834824
2022-11-25T00:17:03.347Z,50.834835
2022-11-25T00:18:03.271Z,50.834789
2022-11-25T00:19:04.263Z,50.834785
2022-11-25T00:20:03.196Z,50.834774
2022-11-25T00:21:03.188Z,50.834808
2022-11-25T00:22:03.291Z,50.834824
2022-11-25T00:23:35.058Z,50.834820
2022-11-25T00:24:03.260Z,50.834824
2022-11-25T00:25:03.203Z,50.834782
2022-11-25T00:26:03.165Z,50.834808
2022-11-25T00:27:03.127Z,50.834816
2022-11-25T00:28:03.147Z,50.834808
2022-11-25T00:29:03.129Z,50.834808
2022-11-25T00:30:03.097Z,50.834816
2022-11-25T00:31:03.097Z,50.834831
2022-11-25T00:32:03.201Z,50.834801
2022-11-25T00:33:03.096Z,50.834782
2022-11-25T00:34:03.107Z,50.834793
2022-11-25T00:35:03.055Z,50.834824
2022-11-25T00:36:03.166Z,50.834824
2022-11-25T00:37:03.081Z,50.834801
2022-11-25T00:38:03.034Z,50.834824
2022-11-25T00:39:03.013Z,50.834827
2022-11-25T00:40:03.036Z,50.834785
2022-11-25T00:41:03.048Z,50.834793
2022-11-25T00:42:03.069Z,50.834808
2022-11-25T00:43:03.021Z,50.834793
2022-11-25T00:44:02.996Z,50.834812
2022-11-25T00:45:03.024Z,50.834827
2022-11-25T00:46:03.085Z,50.834801
2022-11-25T00:47:02.984Z,50.834801
2022-11-25T00:48:02.955Z,50.834789
2022-11-25T00:49:02.941Z,50.834801
2022-11-25T00:50:03.084Z,50.834816
2022-11-25T00:51:02.956Z,50.834820
2022-11-25T00:52:02.995Z,50.834808
2022-11-25T00:53:02.962Z,50.834816
2022-11-25T00:54:02.918Z,50.834808
2022-11-25T00:55:02.912Z,50.834812
2022-11-25T00:56:02.913Z,50.834785
2022-11-25T00:57:02.890Z,50.834785
2022-11-25T00:58:02.895Z,50.834766
2022-11-25T00:59:02.894Z,50.834770
2022-11-25T01:00:02.897Z,50.834785
2022-11-25T01:01:02.962Z,50.834808
2022-11-25T01:02:02.951Z,50.834782
2022-11-25T01:03:34.763Z,50.834785
2022-11-25T01:04:02.857Z,50.834789
2022-11-25T01:05:03.893Z,50.834778
2022-11-25T01:06:02.816Z,50.834785
2022-11-25T01:07:02.795Z,50.834808
2022-11-25T01:08:02.791Z,50.834782
2022-11-25T01:09:02.910Z,50.834785
2022-11-25T01:10:02.809Z,50.834766
2022-11-25T01:11:02.817Z,50.834789
2022-11-25T01:12:02.777Z,50.834797
2022-11-25T01:13:02.759Z,50.834785
2022-11-25T01:14:02.766Z,50.834763
2022-11-25T01:15:02.763Z,50.834770
2022-11-25T01:16:02.814Z,50.834770
2022-11-25T01:17:02.737Z,50.834785
2022-11-25T01:18:02.746Z,50.834778
2022-11-25T01:19:02.792Z,50.834759
2022-11-25T01:20:02.728Z,50.834766
2022-11-25T01:21:02.727Z,50.834770
2022-11-25T01:22:02.723Z,50.834774
2022-11-25T01:23:02.698Z,50.834766
2022-11-25T01:24:02.772Z,50.834766
2022-11-25T01:25:02.699Z,50.834770
2022-11-25T01:26:02.651Z,50.834774
2022-11-25T01:27:02.668Z,50.834763
2022-11-25T01:28:02.669Z,50.834789
2022-11-25T01:29:02.640Z,50.834770
2022-11-25T01:30:02.634Z,50.834747
2022-11-25T01:31:02.611Z,50.834751
2022-11-25T01:32:02.720Z,50.834751
2022-11-25T01:33:02.602Z,50.834770
2022-11-25T01:34:02.613Z,50.834774
2022-11-25T01:35:02.592Z,50.834747
2022-11-25T01:36:02.579Z,50.834763
2022-11-25T01:37:02.589Z,50.834766
2022-11-25T01:38:02.585Z,50.834759
2022-11-25T01:39:02.603Z,50.834766
2022-11-25T01:40:02.563Z,50.834763
2022-11-25T01:41:02.554Z,50.834747
2022-11-25T01:42:02.585Z,50.834747
2022-11-25T01:43:02.560Z,50.834759
2022-11-25T01:44:02.526Z,50.834743
2022-11-25T01:45:02.546Z,50.834743
2022-11-25T01:46:02.560Z,50.834751
2022-11-25T01:47:02.496Z,50.834770
2022-11-25T01:48:02.508Z,50.834755
2022-11-25T01:49:02.495Z,50.834755
2022-11-25T01:50:02.579Z,50.834755
2022-11-25T01:51:02.465Z,50.834778
2022-11-25T01:52:02.468Z,50.834759
2022-11-25T01:53:02.473Z,50.834743
2022-11-25T01:54:02.440Z,50.834747
2022-11-25T01:55:02.435Z,50.834766
2022-11-25T01:56:02.451Z,50.834774
2022-11-25T01:57:02.501Z,50.834766
2022-11-25T01:58:02.429Z,50.834774
2022-11-25T01:59:02.458Z,50.834774
2022-11-25T02:00:02.427Z,50.834774
2022-11-25T02:01:02.418Z,50.834770
2022-11-25T02:02:02.439Z,50.834763
2022-11-25T02:03:02.386Z,50.834785
2022-11-25T02:04:02.359Z,50.834801
2022-11-25T02:05:02.384Z,50.834785
2022-11-25T02:06:02.359Z,50.834785
2022-11-25T02:07:02.330Z,50.834782
2022-11-25T02:08:02.331Z,50.834793
2022-11-25T02:09:02.360Z,50.834816
2022-11-25T02:10:02.367Z,50.834824
2022-11-25T02:11:02.337Z,50.834812
2022-11-25T02:12:02.323Z,50.834820
2022-11-25T02:13:02.282Z,50.834820
2022-11-25T02:14:03.212Z,50.834824
2022-11-25T02:15:02.270Z,50.834797
2022-11-25T02:16:02.345Z,50.834835
2022-11-25T02:17:02.364Z,50.834824
2022-11-25T02:18:02.257Z,50.834812
2022-11-25T02:19:02.280Z,50.834824
2022-11-25T02:20:02.259Z,50.834816
2022-11-25T02:21:02.262Z,50.834831
2022-11-25T02:22:02.231Z,50.834797
2022-11-25T02:23:02.239Z,50.834824
2022-11-25T02:24:02.212Z,50.834797
2022-11-25T02:25:02.199Z,50.834820
2022-11-25T02:26:02.188Z,50.834808
2022-11-25T02:27:02.214Z,50.834801
2022-11-25T02:28:02.204Z,50.834797
2022-11-25T02:29:02.168Z,50.834805
2022-11-25T02:30:02.184Z,50.834820
2022-11-25T02:31:02.183Z,50.834797
2022-11-25T02:32:02.216Z,50.834793
2022-11-25T02:33:02.139Z,50.834797
2022-11-25T02:34:02.145Z,50.834816
2022-11-25T02:35:02.116Z,50.834824
2022-11-25T02:36:02.166Z,50.834816
2022-11-25T02:37:02.111Z,50.834846
2022-11-25T02:38:34.044Z,50.834816
2022-11-25T02:39:02.105Z,50.834797
2022-11-25T02:40:02.127Z,50.834824
2022-11-25T02:41:02.070Z,50.834820
2022-11-25T02:42:02.084Z,50.834824
2022-11-25T02:43:02.066Z,50.834816
2022-11-25T02:44:02.094Z,50.834812
2022-11-25T02:45:02.076Z,50.834805
2022-11-25T02:46:02.154Z,50.834785
2022-11-25T02:47:02.060Z,50.834820
2022-11-25T02:48:02.021Z,50.834820
2022-11-25T02:49:10.226Z,50.834839
2022-11-25T02:50:04.003Z,50.834843
2022-11-25T02:51:02.023Z,50.834839
2022-11-25T02:52:02.022Z,50.834835
2022-11-25T02:53:01.994Z,50.834808
2022-11-25T02:54:01.989Z,50.834797
2022-11-25T02:55:02.003Z,50.834797
2022-11-25T02:56:01.984Z,50.834801
2022-11-25T02:57:01.939Z,50.834808
2022-11-25T02:58:01.935Z,50.834820
2022-11-25T02:59:01.955Z,50.834808
2022-11-25T03:00:01.964Z,50.834820
2022-11-25T03:01:01.972Z,50.834797
2022-11-25T03:02:01.947Z,50.834831
2022-11-25T03:03:01.914Z,50.834835
2022-11-25T03:04:01.911Z,50.834854
2022-11-25T03:05:01.942Z,50.834846
2022-11-25T03:06:01.875Z,50.834858
2022-11-25T03:07:01.914Z,50.834858
2022-11-25T03:08:01.865Z,50.834839
2022-11-25T03:09:01.885Z,50.834831
2022-11-25T03:10:01.878Z,50.834843
2022-11-25T03:11:01.839Z,50.834846
2022-11-25T03:12:01.829Z,50.834843
2022-11-25T03:13:01.831Z,50.834850
2022-11-25T03:14:01.843Z,50.834843
2022-11-25T03:15:01.805Z,50.834839
2022-11-25T03:16:01.821Z,50.834843
2022-11-25T03:17:01.836Z,50.834843
2022-11-25T03:18:01.776Z,50.834846
2022-11-25T03:19:01.765Z,50.834816
2022-11-25T03:20:01.786Z,50.834850
2022-11-25T03:21:01.763Z,50.834835
2022-11-25T03:22:01.767Z,50.834827
2022-11-25T03:23:01.818Z,50.834839
2022-11-25T03:24:01.738Z,50.834839
2022-11-25T03:25:01.757Z,50.834824
2022-11-25T03:26:01.711Z,50.834835
2022-11-25T03:27:01.731Z,50.834866
2022-11-25T03:28:01.709Z,50.834866
2022-11-25T03:29:01.711Z,50.834835
2022-11-25T03:30:01.777Z,50.834858
2022-11-25T03:31:01.678Z,50.834873
2022-11-25T03:32:04.275Z,50.834843
2022-11-25T03:33:03.674Z,50.834862
2022-11-25T03:34:01.677Z,50.834854
2022-11-25T03:35:01.675Z,50.834843
2022-11-25T03:36:01.639Z,50.834843
2022-11-25T03:37:01.686Z,50.834858
2022-11-25T03:38:01.639Z,50.834850
2022-11-25T03:39:01.651Z,50.834846
2022-11-25T03:40:01.619Z,50.834843
2022-11-25T03:41:01.615Z,50.834831
2022-11-25T03:42:01.618Z,50.834873
2022-11-25T03:43:01.636Z,50.834850
2022-11-25T03:44:01.583Z,50.834885
2022-11-25T03:45:01.586Z,50.834877
2022-11-25T03:46:01.737Z,50.834866
2022-11-25T03:47:01.578Z,50.834923
2022-11-25T04:05:11.908Z,50.834869
2022-11-25T04:06:43.766Z,50.834888
2022-11-25T04:07:11.891Z,50.834850
2022-11-25T04:08:44.817Z,50.834850
2022-11-25T04:09:11.844Z,50.834835
2022-11-25T04:10:11.831Z,50.834854
2022-11-25T04:11:11.824Z,50.834866
2022-11-25T04:12:11.814Z,50.834869
2022-11-25T04:13:11.847Z,50.834854
2022-11-25T04:14:11.813Z,50.834858
2022-11-25T04:15:11.801Z,50.834881
2022-11-25T04:16:11.809Z,50.834900
2022-11-25T04:17:11.876Z,50.834888
2022-11-25T04:18:11.804Z,50.834881
2022-11-25T04:19:11.800Z,50.834881
2022-11-25T04:20:11.772Z,50.834869
2022-11-25T04:21:11.756Z,50.834892
2022-11-25T04:22:11.760Z,50.834881
2022-11-25T04:23:11.746Z,50.834873
2022-11-25T04:24:11.757Z,50.834881
2022-11-25T04:25:11.746Z,50.834873
2022-11-25T04:26:11.723Z,50.834850
2022-11-25T04:27:11.698Z,50.834866
2022-11-25T04:28:12.398Z,50.834866
2022-11-25T04:29:11.691Z,50.834873
2022-11-25T04:30:11.695Z,50.834846
2022-11-25T04:31:11.782Z,50.834850
2022-11-25T04:32:11.655Z,50.834873
2022-11-25T04:33:11.669Z,50.834881
2022-11-25T04:34:11.644Z,50.834885
2022-11-25T04:35:11.632Z,50.834881
2022-11-25T04:36:11.651Z,50.834877
2022-11-25T04:37:11.626Z,50.834869
2022-11-25T04:38:11.721Z,50.834866
2022-11-25T04:39:11.658Z,50.834885
2022-11-25T04:40:11.603Z,50.834885
2022-11-25T04:41:11.636Z,50.834862
2022-11-25T04:42:11.619Z,50.834850
2022-11-25T04:43:11.595Z,50.834835
2022-11-25T04:44:11.601Z,50.834854
2022-11-25T04:45:22.964Z,50.834839
2022-11-25T04:46:14.592Z,50.834843
2022-11-25T04:47:12.646Z,50.834866
2022-11-25T04:48:11.695Z,50.834850
2022-11-25T04:49:11.542Z,50.834846
2022-11-25T04:50:11.551Z,50.834820
2022-11-25T04:51:11.557Z,50.834824
2022-11-25T04:52:11.514Z,50.834843
2022-11-25T04:53:11.509Z,50.834812
2022-11-25T04:54:17.183Z,50.834858
2022-11-25T04:55:13.510Z,50.834869
2022-11-25T04:56:11.518Z,50.834835
2022-11-25T04:57:11.470Z,50.834843
2022-11-25T04:58:11.659Z,50.834843
2022-11-25T04:59:11.463Z,50.834869
2022-11-25T05:00:11.438Z,50.834854
2022-11-25T05:01:11.527Z,50.834869
2022-11-25T05:02:11.546Z,50.834866
2022-11-25T05:03:11.424Z,50.834820
2022-11-25T05:04:11.415Z,50.834831
2022-11-25T05:05:11.437Z,50.834858
2022-11-25T05:06:11.415Z,50.834827
2022-11-25T05:07:11.432Z,50.834827
2022-11-25T05:08:11.526Z,50.834820
2022-11-25T05:09:11.375Z,50.834846
2022-11-25T05:10:11.414Z,50.834862
2022-11-25T05:11:11.362Z,50.834866
2022-11-25T05:12:11.346Z,50.834850
2022-11-25T05:13:11.414Z,50.834839
2022-11-25T05:14:11.369Z,50.834858
2022-11-25T05:15:11.325Z,50.834866
2022-11-25T05:16:11.428Z,50.834797
2022-11-25T05:17:11.342Z,50.834808
2022-11-25T05:18:11.600Z,50.834812
2022-11-25T05:19:11.381Z,50.834820
2022-11-25T05:20:11.304Z,50.834835
2022-11-25T05:21:11.287Z,50.834808
2022-11-25T05:22:11.301Z,50.834805
2022-11-25T05:23:11.291Z,50.834805
2022-11-25T05:24:11.280Z,50.834797
2022-11-25T05:25:11.365Z,50.834812
2022-11-25T05:26:11.256Z,50.834778
2022-11-25T05:27:11.279Z,50.834812
2022-11-25T05:28:11.239Z,50.834785
2022-11-25T05:29:11.216Z,50.834801
2022-11-25T05:30:11.215Z,50.834789
2022-11-25T05:31:11.295Z,50.834812
2022-11-25T05:32:11.262Z,50.834808
2022-11-25T05:33:11.216Z,50.834831
2022-11-25T05:34:11.204Z,50.834820
2022-11-25T05:35:11.187Z,50.834820
2022-11-25T05:36:11.208Z,50.834789
2022-11-25T05:37:11.156Z,50.834785
2022-11-25T05:38:11.178Z,50.834793
2022-11-25T05:39:11.169Z,50.834808
2022-11-25T05:40:11.141Z,50.834785
2022-11-25T05:41:11.197Z,50.834770
2022-11-25T05:42:11.131Z,50.834755
2022-11-25T05:43:11.121Z,50.834774
2022-11-25T05:44:11.123Z,50.834763
2022-11-25T05:45:11.162Z,50.834785
2022-11-25T05:46:11.149Z,50.834782
2022-11-25T05:47:11.111Z,50.834793
2022-11-25T05:48:11.083Z,50.834789
2022-11-25T05:49:11.084Z,50.834812
2022-11-25T05:50:11.113Z,50.834831
2022-11-25T05:51:11.990Z,50.834831
2022-11-25T05:52:43.013Z,50.834808
2022-11-25T05:53:42.944Z,50.834808
2022-11-25T05:54:43.059Z,50.834812
2022-11-25T05:55:43.027Z,50.834801
2022-11-25T05:56:43.073Z,50.834782
2022-11-25T05:57:42.977Z,50.834793
2022-11-25T05:58:11.122Z,50.834801
2022-11-25T06:04:52.651Z,50.834820
2022-11-25T06:05:52.595Z,50.834812
2022-11-25T06:06:52.618Z,50.834820
2022-11-25T06:07:52.675Z,50.834820
2022-11-25T06:08:20.664Z,50.834824
2022-11-25T06:09:52.609Z,50.834835
2022-11-25T06:10:20.643Z,50.834816
2022-11-25T06:11:20.713Z,50.834835
2022-11-25T06:12:20.633Z,50.834820
2022-11-25T06:13:20.695Z,50.834843
2022-11-25T06:14:20.614Z,50.834835
2022-11-25T06:15:20.631Z,50.834846
2022-11-25T06:16:20.626Z,50.834854
2022-11-25T06:17:20.611Z,50.834843
2022-11-25T06:18:20.626Z,50.834843
2022-11-25T06:19:20.607Z,50.834816
2022-11-25T06:20:20.566Z,50.834816
2022-11-25T06:21:20.571Z,50.834801
2022-11-25T06:22:20.561Z,50.834812
2022-11-25T06:23:20.557Z,50.834827
2022-11-25T06:24:20.549Z,50.834827
2022-11-25T06:25:20.591Z,50.834831
2022-11-25T06:26:20.516Z,50.834835
2022-11-25T06:27:20.527Z,50.834831
2022-11-25T06:28:20.505Z,50.834827
2022-11-25T06:29:20.527Z,50.834835
2022-11-25T06:30:20.594Z,50.834843
2022-11-25T06:31:20.553Z,50.834846
2022-11-25T06:32:20.493Z,50.834854
2022-11-25T06:33:20.480Z,50.834831
2022-11-25T06:34:20.471Z,50.834831
2022-11-25T06:35:20.478Z,50.834820
2022-11-25T06:36:20.474Z,50.834797
2022-11-25T06:37:20.448Z,50.834797
2022-11-25T06:38:20.434Z,50.834812
2022-11-25T06:39:20.437Z,50.834785
2022-11-25T06:40:20.471Z,50.834820
2022-11-25T06:41:20.476Z,50.834808
2022-11-25T06:42:20.507Z,50.834812
2022-11-25T06:43:20.391Z,50.834805
2022-11-25T06:44:20.446Z,50.834816
2022-11-25T06:45:20.402Z,50.834820
2022-11-25T06:46:24.767Z,50.834797
2022-11-25T06:47:21.420Z,50.834797
2022-11-25T06:48:20.411Z,50.834770
2022-11-25T06:49:20.437Z,50.834805
2022-11-25T06:50:20.409Z,50.834797
2022-11-25T06:51:20.347Z,50.834820
2022-11-25T06:52:20.500Z,50.834808
2022-11-25T06:53:24.076Z,50.834797
2022-11-25T06:54:21.348Z,50.834797
2022-11-25T06:55:20.307Z,50.834801
2022-11-25T06:56:20.339Z,50.834816
2022-11-25T06:57:20.296Z,50.834801
2022-11-25T06:58:35.436Z,50.834820
2022-11-25T06:59:22.278Z,50.834789
2022-11-25T07:00:20.267Z,50.834789
2022-11-25T07:01:20.295Z,50.834789
2022-11-25T07:02:20.320Z,50.834801
2022-11-25T07:03:20.344Z,50.834808
2022-11-25T07:04:20.277Z,50.834793
2022-11-25T07:05:20.917Z,50.834793
2022-11-25T07:06:20.260Z,50.834782
2022-11-25T07:07:20.251Z,50.834812
2022-11-25T07:08:20.217Z,50.834797
2022-11-25T07:09:20.235Z,50.834785
2022-11-25T07:10:20.230Z,50.834782
2022-11-25T07:11:20.208Z,50.834793
2022-11-25T07:12:20.197Z,50.834793
2022-11-25T07:13:20.191Z,50.834774
2022-11-25T07:14:20.167Z,50.834770
2022-11-25T07:15:20.206Z,50.834789
2022-11-25T07:16:20.236Z,50.834770
2022-11-25T07:17:20.197Z,50.834736
2022-11-25T07:18:20.212Z,50.834812
2022-11-25T07:19:20.136Z,50.834839
2022-11-25T07:20:20.143Z,50.834793
2022-11-25T07:21:20.124Z,50.834778
2022-11-25T07:22:20.115Z,50.834797
2022-11-25T07:23:20.099Z,50.834812
2022-11-25T07:24:20.083Z,50.834812
2022-11-25T07:25:20.223Z,50.834801
2022-11-25T07:26:20.091Z,50.834808
2022-11-25T07:27:20.118Z,50.834778
2022-11-25T07:28:20.065Z,50.834793
2022-11-25T07:31:23.708Z,50.834782
2022-11-25T07:32:22.569Z,50.834789
2022-11-25T07:33:20.187Z,50.834801
2022-11-25T07:34:20.181Z,50.834797
2022-11-25T07:35:21.010Z,50.834778
2022-11-25T07:36:20.061Z,50.834808
2022-11-25T07:37:20.001Z,50.834797
2022-11-25T07:38:19.996Z,50.834801
2022-11-25T07:39:20.028Z,50.834789
2022-11-25T07:40:19.971Z,50.834812
2022-11-25T07:41:19.962Z,50.834824
2022-11-25T07:42:19.966Z,50.834824
2022-11-25T07:43:19.944Z,50.834812
2022-11-25T07:44:19.972Z,50.834763
2022-11-25T07:45:19.948Z,50.834801
2022-11-25T07:46:26.276Z,50.834820
2022-11-25T07:47:21.931Z,50.834812
2022-11-25T07:48:20.922Z,50.834793
2022-11-25T07:49:19.891Z,50.834801
2022-11-25T07:50:19.887Z,50.834805
2022-11-25T07:51:19.900Z,50.834793
2022-11-25T07:52:19.905Z,50.834816
2022-11-25T07:53:19.915Z,50.834812
2022-11-25T07:54:19.866Z,50.834816
2022-11-25T07:55:19.868Z,50.834785
2022-11-25T07:56:19.851Z,50.834759
2022-11-25T07:57:19.839Z,50.834805
2022-11-25T07:58:19.852Z,50.834858
2022-11-25T07:59:19.856Z,50.834908
2022-11-25T08:00:19.838Z,50.834885
2022-11-25T08:01:19.938Z,50.834835
2022-11-25T08:02:19.856Z,50.834824
2022-11-25T08:03:19.979Z,50.834866
2022-11-25T08:04:21.023Z,50.834854
2022-11-25T08:05:20.791Z,50.834778
2022-11-25T08:06:19.822Z,50.834770
2022-11-25T08:07:19.819Z,50.834797
2022-11-25T08:08:19.772Z,50.834782
2022-11-25T08:09:19.758Z,50.834793
2022-11-25T08:10:19.755Z,50.834839
2022-11-25T08:11:19.777Z,50.834831
2022-11-25T08:12:19.767Z,50.834839
2022-11-25T08:13:19.824Z,50.834805
2022-11-25T08:14:19.731Z,50.834797
2022-11-25T08:15:19.727Z,50.834820
2022-11-25T08:16:19.761Z,50.834843
2022-11-25T08:17:19.719Z,50.834816
2022-11-25T08:18:19.697Z,50.834827
2022-11-25T08:19:19.709Z,50.834785
2022-11-25T08:20:19.688Z,50.834782
2022-11-25T08:21:19.677Z,50.834820
2022-11-25T08:22:19.701Z,50.834824
2022-11-25T08:23:19.661Z,50.834846
2022-11-25T08:24:19.696Z,50.834820
2022-11-25T08:25:19.636Z,50.834820
2022-11-25T08:26:19.650Z,50.834801
2022-11-25T08:27:19.648Z,50.834824
2022-11-25T08:28:19.615Z,50.834805
2022-11-25T08:29:19.632Z,50.834824
2022-11-25T08:30:19.622Z,50.834812
2022-11-25T08:31:51.531Z,50.834820
2022-11-25T08:32:19.592Z,50.834835
2022-11-25T08:33:19.578Z,50.834824
2022-11-25T08:34:19.575Z,50.834835
2022-11-25T08:35:20.535Z,50.834835
2022-11-25T08:36:19.577Z,50.834827
2022-11-25T08:37:19.598Z,50.834816
2022-11-25T08:38:20.389Z,50.834805
2022-11-25T08:40:21.632Z,50.834808
2022-11-25T08:41:19.528Z,50.834808
2022-11-25T08:42:19.542Z,50.834805
2022-11-25T08:43:22.789Z,50.834793
2022-11-25T08:44:20.499Z,50.834827
2022-11-25T08:45:19.518Z,50.834812
2022-11-25T08:46:19.530Z,50.834827
2022-11-25T08:47:19.483Z,50.834827
2022-11-25T08:48:19.579Z,50.834812
2022-11-25T08:49:20.026Z,50.834805
2022-11-25T08:50:19.483Z,50.834831
2022-11-25T08:51:20.034Z,50.834854
2022-11-25T08:52:19.506Z,50.834831
2022-11-25T08:53:19.462Z,50.834827
2022-11-25T08:54:19.449Z,50.834816
2022-11-25T08:55:19.451Z,50.834827
2022-11-25T08:56:24.338Z,50.834835
2022-11-25T08:57:21.442Z,50.834854
2022-11-25T08:58:19.451Z,50.834843
2022-11-25T08:59:19.378Z,50.834835
2022-11-25T09:00:19.406Z,50.834839
2022-11-25T09:01:20.440Z,50.834843
2022-11-25T09:02:19.492Z,50.834827
2022-11-25T09:03:19.412Z,50.834827
2022-11-25T09:04:19.388Z,50.834816
2022-11-25T09:05:19.378Z,50.834808
2022-11-25T09:06:19.374Z,50.834805
2022-11-25T09:07:19.381Z,50.834812
2022-11-25T09:08:19.303Z,50.834820
2022-11-25T09:09:19.296Z,50.834854
2022-11-25T09:10:19.291Z,50.834843
2022-11-25T09:11:19.338Z,50.834831
2022-11-25T09:12:19.341Z,50.834866
2022-11-25T09:13:19.365Z,50.834850
2022-11-25T09:14:19.306Z,50.834839
2022-11-25T09:15:19.258Z,50.834858
2022-11-25T09:16:19.423Z,50.834866
2022-11-25T09:17:19.292Z,50.834862
2022-11-25T09:18:19.254Z,50.834850
2022-11-25T09:19:19.269Z,50.834892
2022-11-25T09:20:19.245Z,50.834843
2022-11-25T09:21:19.245Z,50.834850
2022-11-25T09:22:19.223Z,50.834850
2022-11-25T09:23:19.218Z,50.834873
2022-11-25T09:24:19.195Z,50.834873
2022-11-25T09:25:19.233Z,50.834869
2022-11-25T09:26:19.182Z,50.834816
2022-11-25T09:27:19.219Z,50.834808
2022-11-25T09:28:19.182Z,50.834843
2022-11-25T09:29:19.160Z,50.834846
2022-11-25T09:30:19.174Z,50.834843
2022-11-25T09:31:19.206Z,50.834858
2022-11-25T09:32:20.029Z,50.834827
2022-11-25T09:33:19.169Z,50.834862
2022-11-25T09:34:19.184Z,50.834854
2022-11-25T09:35:19.100Z,50.834846
2022-11-25T09:36:19.138Z,50.834881
2022-11-25T09:37:19.122Z,50.834862
2022-11-25T09:38:19.085Z,50.834866
2022-11-25T09:39:19.093Z,50.834808
2022-11-25T09:40:19.071Z,50.834827
2022-11-25T09:41:19.069Z,50.834843
2022-11-25T09:42:19.118Z,50.834824
2022-11-25T09:43:19.043Z,50.834797
2022-11-25T09:44:19.065Z,50.834850
2022-11-25T09:45:19.027Z,50.834843
2022-11-25T09:46:20.087Z,50.834816
2022-11-25T09:47:19.011Z,50.834820
2022-11-25T09:48:19.033Z,50.834827
2022-11-25T09:49:19.034Z,50.834805
2022-11-25T09:50:18.993Z,50.834816
2022-11-25T09:51:19.006Z,50.834816
2022-11-25T09:52:18.981Z,50.834801
2022-11-25T09:53:18.997Z,50.834827
2022-11-25T09:54:18.993Z,50.834797
2022-11-25T09:55:18.977Z,50.834850
2022-11-25T09:56:19.031Z,50.834808
2022-11-25T09:57:18.947Z,50.834820
2022-11-25T09:58:18.944Z,50.834824
2022-11-25T09:59:18.949Z,50.834805
2022-11-25T10:00:18.943Z,50.834824
2022-11-25T10:01:19.608Z,50.834816
2022-11-25T10:02:19.026Z,50.834824
2022-11-25T10:03:19.023Z,50.834831
2022-11-25T10:04:18.884Z,50.834835
2022-11-25T10:05:18.878Z,50.834824
2022-11-25T10:06:18.974Z,50.834816
2022-11-25T10:07:18.907Z,50.834812
2022-11-25T10:08:19.650Z,50.834755
2022-11-25T10:09:18.860Z,50.834763
2022-11-25T10:10:18.963Z,50.834805
2022-11-25T10:11:18.840Z,50.834801
2022-11-25T10:12:18.879Z,50.834774
2022-11-25T10:13:19.779Z,50.834763
2022-11-25T10:14:18.835Z,50.834797
2022-11-25T10:15:18.794Z,50.834782
2022-11-25T10:16:18.839Z,50.834759
2022-11-25T10:17:18.800Z,50.834747
2022-11-25T10:18:18.782Z,50.834782
2022-11-25T10:19:18.768Z,50.834782
2022-11-25T10:20:18.814Z,50.834820
2022-11-25T10:21:18.749Z,50.834824
2022-11-25T10:22:18.769Z,50.834839
2022-11-25T10:23:22.261Z,50.834827
2022-11-25T10:24:19.736Z,50.834816
2022-11-25T10:25:18.711Z,50.834812
2022-11-25T10:26:18.749Z,50.834816
2022-11-25T10:27:18.739Z,50.834827
2022-11-25T10:28:18.696Z,50.834820
2022-11-25T10:29:18.704Z,50.834820
2022-11-25T10:30:18.937Z,50.834839
2022-11-25T10:31:18.777Z,50.834812
2022-11-25T10:32:18.655Z,50.834854
2022-11-25T10:33:18.658Z,50.834820
2022-11-25T10:34:18.654Z,50.834824
2022-11-25T10:35:18.652Z,50.834835
2022-11-25T10:36:18.665Z,50.834812
2022-11-25T10:37:18.619Z,50.834831
2022-11-25T10:38:19.303Z,50.834843
2022-11-25T10:39:19.811Z,50.834820
2022-11-25T10:40:18.676Z,50.834839
2022-11-25T10:41:18.591Z,50.834824
2022-11-25T10:42:18.630Z,50.834839
2022-11-25T10:43:18.594Z,50.834850
2022-11-25T10:44:18.697Z,50.834824
2022-11-25T10:45:18.591Z,50.834831
2022-11-25T10:46:18.640Z,50.834816
2022-11-25T10:47:18.638Z,50.834824
2022-11-25T10:48:18.558Z,50.834862
2022-11-25T10:49:18.579Z,50.834846
2022-11-25T10:50:18.579Z,50.834816
2022-11-25T10:51:18.550Z,50.834808
2022-11-25T10:52:18.531Z,50.834808
2022-11-25T10:53:18.534Z,50.834831
2022-11-25T10:54:22.692Z,50.834816
2022-11-25T10:55:19.562Z,50.834820
2022-11-25T10:56:18.592Z,50.834858
2022-11-25T10:57:19.509Z,50.834820
2022-11-25T10:58:18.507Z,50.834827
2022-11-25T10:59:18.494Z,50.834827
2022-11-25T11:00:18.477Z,50.834843
2022-11-25T11:01:18.535Z,50.834824
2022-11-25T11:02:18.541Z,50.834827
2022-11-25T11:03:18.467Z,50.834789
2022-11-25T11:04:18.446Z,50.834789
2022-11-25T11:05:18.487Z,50.834801
2022-11-25T11:06:18.463Z,50.834801
2022-11-25T11:07:18.501Z,50.834793
2022-11-25T11:08:18.448Z,50.834797
2022-11-25T11:13:06.143Z,50.834816
2022-11-25T11:14:06.747Z,50.834805
2022-11-25T11:15:06.051Z,50.834793
2022-11-25T11:16:06.100Z,50.834801
2022-11-25T11:17:06.056Z,50.834801
2022-11-25T11:18:06.045Z,50.834793
2022-11-25T11:19:06.022Z,50.834805
2022-11-25T11:20:06.031Z,50.834820
2022-11-25T11:21:06.042Z,50.834820
2022-11-25T11:22:05.990Z,50.834816
2022-11-25T11:23:09.127Z,50.834816
2022-11-25T11:24:06.998Z,50.834812
2022-11-25T11:25:05.993Z,50.834812
2022-11-25T11:26:06.065Z,50.834827
2022-11-25T11:27:05.972Z,50.834816
2022-11-25T11:28:06.004Z,50.834843
2022-11-25T11:29:09.820Z,50.834808
2022-11-25T11:30:07.970Z,50.834831
2022-11-25T11:31:06.021Z,50.834824
2022-11-25T11:32:05.952Z,50.834835
2022-11-25T11:33:05.921Z,50.834793
2022-11-25T11:34:05.920Z,50.834805
2022-11-25T11:35:05.949Z,50.834797
2022-11-25T11:36:05.883Z,50.834797
2022-11-25T11:37:05.897Z,50.834797
2022-11-25T11:38:05.882Z,50.834808
2022-11-25T11:39:05.929Z,50.834835
2022-11-25T11:40:05.901Z,50.834816
2022-11-25T11:41:05.850Z,50.834820
2022-11-25T11:42:05.894Z,50.834812
2022-11-25T11:43:05.977Z,50.834808
2022-11-25T11:44:06.729Z,50.834793
2022-11-25T11:45:05.837Z,50.834797
2022-11-25T11:46:05.830Z,50.834831
2022-11-25T11:47:05.881Z,50.834831
2022-11-25T11:48:05.821Z,50.834805
2022-11-25T11:49:05.813Z,50.834824
2022-11-25T11:50:05.854Z,50.834846
2022-11-25T11:51:06.663Z,50.834858
2022-11-25T11:52:05.756Z,50.834793
2022-11-25T11:53:05.763Z,50.834812